Terminal Aerodrome Forecast
Issued by NWS

Home | Current Version | Previous Version | Text Only | Print | Product List | Glossary On
Versions: 1 2 3 4 5 6 7 8 9 10 11 12 13 14 15 16 17 18 19 20 21 22 23 24 25 26 27 28 29 30 31 32 33 34
000
FTUS42 KCAE 241800 AAA
TAFCUB
TAF AMD
KCUB 241855Z 2419/2518 21008KT P6SM VCSH SCT015 BKN070
     FM242100 24005KT P6SM BKN100
     FM250600 26004KT P6SM SCT025 OVC100
     FM251200 31005KT P6SM OVC025=

USA.gov is the U.S. government's official web portal to all federal, state and local government web resources and services.